Time,TemperatureF,DewpointF,PressureIn,WindDirection,WindDirectionDegrees,WindSpeedMPH,WindSpeedGustMPH,Humidity,HourlyPrecipIn,Conditions,Clouds,dailyrainin,SoftwareType,DateUTC
2013-01-25 00:01:00,57.0,53.0,30.19,ENE,61,13.0,16.0,88,0.01,,,0.54,,2013-01-25 08:01:00,
2013-01-25 00:11:00,57.0,53.0,30.19,ENE,61,13.0,16.0,88,0.01,,,0.54,,2013-01-25 08:11:00,
2013-01-25 00:21:00,57.0,53.0,30.19,ENE,61,13.0,16.0,88,0.01,,,0.54,,2013-01-25 08:21:00,
2013-01-25 00:31:00,57.0,53.0,30.17,NE,56,18.0,24.0,86,0.01,,,0.54,,2013-01-25 08:31:00,
2013-01-25 00:41:00,57.0,53.0,30.17,NE,56,18.0,24.0,86,0.01,,,0.54,,2013-01-25 08:41:00,
2013-01-25 00:51:00,57.0,52.0,30.17,NE,53,20.0,22.0,83,0.00,,,0.54,,2013-01-25 08:51:00,
2013-01-25 01:01:00,57.0,52.0,30.17,ENE,67,20.0,27.0,83,0.00,,,0.54,,2013-01-25 09:01:00,
2013-01-25 01:11:00,57.0,52.0,30.17,ENE,67,20.0,27.0,83,0.00,,,0.54,,2013-01-25 09:11:00,
2013-01-25 01:21:00,57.0,52.0,30.17,ENE,67,20.0,27.0,83,0.00,,,0.54,,2013-01-25 09:21:00,
2013-01-25 01:31:00,58.0,52.0,30.17,ENE,74,17.0,25.0,81,0.00,,,0.54,,2013-01-25 09:31:00,
2013-01-25 01:41:00,58.0,52.0,30.17,ENE,74,17.0,25.0,81,0.00,,,0.54,,2013-01-25 09:41:00,
2013-01-25 01:51:00,58.0,52.0,30.17,ENE,60,19.0,28.0,81,0.00,,,0.48,,2013-01-25 09:51:00,
2013-01-25 02:01:00,57.0,52.0,30.17,ENE,63,16.0,23.0,82,0.00,,,0.48,,2013-01-25 10:01:00,
2013-01-25 02:11:00,57.0,52.0,30.17,ENE,63,16.0,23.0,82,0.00,,,0.48,,2013-01-25 10:11:00,
2013-01-25 02:21:00,58.0,52.0,30.16,ENE,59,18.0,23.0,80,0.00,,,0.48,,2013-01-25 10:21:00,
2013-01-25 02:31:00,58.0,52.0,30.16,ENE,57,16.0,21.0,79,0.00,,,0.48,,2013-01-25 10:31:00,
2013-01-25 02:41:00,58.0,52.0,30.16,ENE,57,16.0,21.0,79,0.00,,,0.48,,2013-01-25 10:41:00,
2013-01-25 02:51:00,58.0,52.0,30.16,ENE,74,14.0,20.0,79,0.00,,,0.41,,2013-01-25 10:51:00,
2013-01-25 03:02:00,57.0,51.0,30.15,NE,51,14.0,24.0,80,0.00,,,0.41,,2013-01-25 11:02:00,
2013-01-25 03:11:00,57.0,51.0,30.15,NE,51,14.0,24.0,80,0.00,,,0.41,,2013-01-25 11:11:00,
2013-01-25 03:22:00,57.0,51.0,30.14,East,83,12.0,21.0,80,0.00,,,0.41,,2013-01-25 11:22:00,
2013-01-25 03:32:00,57.0,51.0,30.14,ENE,76,11.0,16.0,80,0.00,,,0.41,,2013-01-25 11:32:00,
2013-01-25 03:42:00,57.0,51.0,30.14,ENE,76,11.0,16.0,80,0.00,,,0.41,,2013-01-25 11:42:00,
2013-01-25 03:52:00,58.0,50.0,30.13,ENE,57,18.0,22.0,76,0.00,,,0.37,,2013-01-25 11:52:00,
2013-01-25 04:02:00,58.0,50.0,30.11,NE,36,13.0,23.0,76,0.00,,,0.37,,2013-01-25 12:02:00,
2013-01-25 04:11:00,58.0,50.0,30.11,NE,36,13.0,23.0,76,0.00,,,0.37,,2013-01-25 12:11:00,
2013-01-25 04:21:00,57.0,49.0,30.12,East,92,14.0,23.0,74,0.00,,,0.37,,2013-01-25 12:21:00,
2013-01-25 04:32:00,57.0,49.0,30.11,ENE,64,16.0,23.0,74,0.00,,,0.37,,2013-01-25 12:32:00,
2013-01-25 04:42:00,57.0,49.0,30.11,ENE,64,16.0,23.0,74,0.00,,,0.37,,2013-01-25 12:42:00,
2013-01-25 04:52:00,57.0,48.0,30.12,ENE,63,15.0,25.0,73,0.00,,,0.28,,2013-01-25 12:52:00,
2013-01-25 05:02:00,56.0,48.0,30.12,East,89,17.0,22.0,75,0.00,,,0.28,,2013-01-25 13:02:00,
2013-01-25 05:11:00,56.0,48.0,30.12,East,89,17.0,22.0,75,0.00,,,0.28,,2013-01-25 13:11:00,
2013-01-25 05:22:00,56.0,49.0,30.11,ENE,66,18.0,24.0,76,0.00,,,0.28,,2013-01-25 13:22:00,
2013-01-25 05:32:00,56.0,48.0,30.11,East,93,17.0,23.0,74,0.00,,,0.28,,2013-01-25 13:32:00,
2013-01-25 05:42:00,56.0,48.0,30.11,East,93,17.0,23.0,74,0.00,,,0.28,,2013-01-25 13:42:00,
2013-01-25 05:52:00,56.0,48.0,30.11,East,80,15.0,22.0,75,0.00,,,0.25,,2013-01-25 13:52:00,
2013-01-25 06:02:00,56.0,48.0,30.11,ENE,67,19.0,24.0,75,0.00,,,0.25,,2013-01-25 14:02:00,
2013-01-25 06:12:00,56.0,48.0,30.11,ENE,67,19.0,24.0,75,0.00,,,0.25,,2013-01-25 14:12:00,
2013-01-25 06:22:00,56.0,48.0,30.11,ENE,65,18.0,26.0,74,0.00,,,0.25,,2013-01-25 14:22:00,
2013-01-25 06:32:00,55.0,48.0,30.11,ENE,76,19.0,27.0,76,0.00,,,0.25,,2013-01-25 14:32:00,
2013-01-25 06:42:00,55.0,48.0,30.11,ENE,76,19.0,27.0,76,0.00,,,0.25,,2013-01-25 14:42:00,
2013-01-25 06:52:00,54.0,48.0,30.12,ENE,78,13.0,25.0,79,0.00,,,0.18,,2013-01-25 14:52:00,
2013-01-25 07:02:00,55.0,48.0,30.11,East,79,18.0,24.0,76,0.00,,,0.18,,2013-01-25 15:02:00,
2013-01-25 07:12:00,55.0,48.0,30.11,East,79,18.0,24.0,76,0.00,,,0.18,,2013-01-25 15:12:00,
2013-01-25 07:21:00,57.0,48.0,30.11,ENE,64,16.0,24.0,73,0.00,,,0.18,,2013-01-25 15:21:00,
2013-01-25 07:32:00,56.0,47.0,30.12,ENE,73,16.0,28.0,73,0.00,,,0.18,,2013-01-25 15:32:00,
2013-01-25 07:42:00,56.0,47.0,30.12,ENE,73,16.0,28.0,73,0.00,,,0.18,,2013-01-25 15:42:00,
2013-01-25 07:52:00,57.0,48.0,30.12,East,86,19.0,27.0,73,0.00,,,0.08,,2013-01-25 15:52:00,
2013-01-25 08:02:00,56.0,47.0,30.13,East,86,16.0,22.0,73,0.00,,,0.08,,2013-01-25 16:02:00,
2013-01-25 08:11:00,56.0,47.0,30.13,East,86,16.0,22.0,73,0.00,,,0.08,,2013-01-25 16:11:00,
2013-01-25 08:22:00,56.0,47.0,30.13,ENE,70,19.0,24.0,73,0.00,,,0.08,,2013-01-25 16:22:00,
2013-01-25 08:32:00,56.0,47.0,30.12,East,85,20.0,25.0,72,0.00,,,0.08,,2013-01-25 16:32:00,
2013-01-25 08:42:00,56.0,47.0,30.12,East,85,20.0,25.0,72,0.00,,,0.08,,2013-01-25 16:42:00,
2013-01-25 08:52:00,56.0,47.0,30.12,ENE,70,14.0,28.0,73,0.00,,,0.07,,2013-01-25 16:52:00,
2013-01-25 09:02:00,56.0,47.0,30.13,East,101,24.0,32.0,73,0.00,,,0.07,,2013-01-25 17:02:00,
2013-01-25 09:11:00,56.0,47.0,30.13,East,101,24.0,32.0,73,0.00,,,0.07,,2013-01-25 17:11:00,
2013-01-25 09:21:00,55.0,47.0,30.14,ENE,70,22.0,30.0,75,0.00,,,0.07,,2013-01-25 17:21:00,
2013-01-25 09:32:00,56.0,49.0,30.14,East,82,24.0,35.0,76,0.00,,,0.07,,2013-01-25 17:32:00,
2013-01-25 09:42:00,56.0,49.0,30.14,East,82,24.0,35.0,76,0.00,,,0.07,,2013-01-25 17:42:00,
2013-01-25 09:52:00,55.0,48.0,30.14,ENE,65,23.0,32.0,78,0.00,,,0.04,,2013-01-25 17:52:00,
2013-01-25 10:02:00,54.0,48.0,30.14,ENE,69,27.0,35.0,81,0.00,,,0.04,,2013-01-25 18:02:00,
2013-01-25 10:11:00,54.0,48.0,30.14,ENE,69,27.0,35.0,81,0.00,,,0.04,,2013-01-25 18:11:00,
2013-01-25 10:22:00,54.0,50.0,30.15,East,88,26.0,31.0,85,0.00,,,0.04,,2013-01-25 18:22:00,
2013-01-25 10:32:00,53.0,50.0,30.15,ENE,69,25.0,34.0,88,0.00,,,0.04,,2013-01-25 18:32:00,
2013-01-25 10:42:00,53.0,50.0,30.15,ENE,69,25.0,34.0,88,0.00,,,0.04,,2013-01-25 18:42:00,
2013-01-25 10:52:00,52.0,50.0,30.15,East,88,24.0,30.0,93,0.00,,,0.04,,2013-01-25 18:52:00,
2013-01-25 11:02:00,52.0,51.0,30.15,East,82,21.0,27.0,95,0.01,,,0.05,,2013-01-25 19:02:00,
2013-01-25 11:12:00,52.0,51.0,30.15,East,82,21.0,27.0,95,0.01,,,0.05,,2013-01-25 19:12:00,
2013-01-25 11:21:00,52.0,51.0,30.16,ENE,76,20.0,26.0,96,0.01,,,0.05,,2013-01-25 19:21:00,
2013-01-25 11:32:00,52.0,51.0,30.15,ENE,66,20.0,27.0,95,0.01,,,0.05,,2013-01-25 19:32:00,
2013-01-25 11:42:00,52.0,51.0,30.15,ENE,66,20.0,27.0,95,0.01,,,0.05,,2013-01-25 19:42:00,
2013-01-25 11:52:00,53.0,52.0,30.15,ENE,57,18.0,24.0,96,0.02,,,0.06,,2013-01-25 19:52:00,
2013-01-25 12:02:00,53.0,52.0,30.14,East,80,15.0,22.0,96,0.01,,,0.06,,2013-01-25 20:02:00,
2013-01-25 12:12:00,53.0,52.0,30.14,East,80,15.0,22.0,96,0.01,,,0.06,,2013-01-25 20:12:00,
2013-01-25 12:21:00,53.0,52.0,30.12,ENE,75,19.0,25.0,96,0.02,,,0.07,,2013-01-25 20:21:00,
2013-01-25 12:32:00,53.0,52.0,30.11,ENE,61,18.0,24.0,96,0.02,,,0.07,,2013-01-25 20:32:00,
2013-01-25 12:42:00,53.0,52.0,30.11,ENE,61,18.0,24.0,96,0.02,,,0.07,,2013-01-25 20:42:00,
2013-01-25 12:52:00,53.0,52.0,30.10,ENE,63,21.0,25.0,96,0.01,,,0.07,,2013-01-25 20:52:00,
2013-01-25 13:02:00,53.0,52.0,30.08,East,84,21.0,28.0,95,0.01,,,0.07,,2013-01-25 21:02:00,
2013-01-25 13:11:00,53.0,52.0,30.08,East,84,21.0,28.0,95,0.01,,,0.07,,2013-01-25 21:11:00,
2013-01-25 13:22:00,53.0,52.0,30.07,ENE,66,25.0,30.0,96,0.00,,,0.07,,2013-01-25 21:22:00,
2013-01-25 13:32:00,53.0,52.0,30.06,ENE,69,21.0,26.0,96,0.00,,,0.07,,2013-01-25 21:32:00,
2013-01-25 13:42:00,53.0,52.0,30.06,ENE,69,21.0,26.0,96,0.00,,,0.07,,2013-01-25 21:42:00,
2013-01-25 13:51:00,54.0,53.0,30.06,ENE,67,22.0,27.0,96,0.00,,,0.07,,2013-01-25 21:51:00,
2013-01-25 14:02:00,53.0,52.0,30.05,ENE,59,25.0,29.0,96,0.00,,,0.07,,2013-01-25 22:02:00,
2013-01-25 14:11:00,53.0,52.0,30.05,ENE,59,25.0,29.0,96,0.00,,,0.07,,2013-01-25 22:11:00,
2013-01-25 14:21:00,54.0,53.0,30.06,ENE,73,16.0,26.0,96,0.00,,,0.07,,2013-01-25 22:21:00,
2013-01-25 14:32:00,54.0,53.0,30.06,ENE,73,16.0,26.0,96,0.00,,,0.07,,2013-01-25 22:32:00,
2013-01-25 14:42:00,54.0,53.0,30.06,ENE,73,16.0,26.0,96,0.00,,,0.07,,2013-01-25 22:42:00,
2013-01-25 15:02:00,54.0,53.0,30.07,ENE,59,16.0,22.0,95,0.00,,,0.07,,2013-01-25 23:02:00,
2013-01-25 15:11:00,54.0,53.0,30.07,ENE,59,16.0,22.0,95,0.00,,,0.07,,2013-01-25 23:11:00,
2013-01-25 15:22:00,54.0,53.0,30.06,ENE,61,15.0,19.0,95,0.00,,,0.07,,2013-01-25 23:22:00,
2013-01-25 15:32:00,55.0,53.0,30.05,ENE,71,14.0,19.0,94,0.00,,,0.07,,2013-01-25 23:32:00,
2013-01-25 15:42:00,55.0,53.0,30.05,ENE,71,14.0,19.0,94,0.00,,,0.07,,2013-01-25 23:42:00,
2013-01-25 15:52:00,55.0,53.0,30.05,ENE,65,14.0,19.0,94,0.00,,,0.07,,2013-01-25 23:52:00,
2013-01-25 16:01:00,54.0,53.0,30.05,ENE,66,12.0,16.0,95,0.01,,,0.08,,2013-01-26 00:01:00,
2013-01-25 16:11:00,54.0,53.0,30.05,ENE,66,12.0,16.0,95,0.01,,,0.08,,2013-01-26 00:11:00,
2013-01-25 16:22:00,54.0,53.0,30.04,ENE,58,9.0,15.0,95,0.03,,,0.10,,2013-01-26 00:22:00,
2013-01-25 16:32:00,54.0,52.0,30.03,ENE,71,11.0,14.0,94,0.03,,,0.10,,2013-01-26 00:32:00,
2013-01-25 16:41:00,54.0,52.0,30.03,ENE,71,11.0,14.0,94,0.03,,,0.10,,2013-01-26 00:41:00,
2013-01-25 16:52:00,54.0,52.0,30.03,ENE,59,13.0,19.0,94,0.03,,,0.10,,2013-01-26 00:52:00,
2013-01-25 17:01:00,54.0,52.0,30.03,ENE,67,17.0,22.0,93,0.02,,,0.10,,2013-01-26 01:01:00,
2013-01-25 17:11:00,54.0,52.0,30.03,ENE,67,17.0,22.0,93,0.02,,,0.10,,2013-01-26 01:11:00,
2013-01-25 17:22:00,54.0,52.0,30.02,ENE,57,16.0,21.0,94,0.00,,,0.10,,2013-01-26 01:22:00,
2013-01-25 17:31:00,54.0,52.0,30.03,East,80,11.0,17.0,94,0.00,,,0.10,,2013-01-26 01:31:00,
2013-01-25 17:42:00,54.0,52.0,30.03,East,80,11.0,17.0,94,0.00,,,0.10,,2013-01-26 01:42:00,
2013-01-25 17:52:00,54.0,52.0,30.04,ENE,62,4.0,14.0,93,0.00,,,0.10,,2013-01-26 01:52:00,
2013-01-25 18:01:00,54.0,52.0,30.03,NE,41,5.0,11.0,93,0.00,,,0.10,,2013-01-26 02:01:00,
2013-01-25 18:11:00,54.0,52.0,30.03,NE,41,5.0,11.0,93,0.00,,,0.10,,2013-01-26 02:11:00,
2013-01-25 18:22:00,54.0,51.0,30.04,ENE,59,11.0,16.0,91,0.00,,,0.10,,2013-01-26 02:22:00,
2013-01-25 18:32:00,55.0,52.0,30.04,NE,43,14.0,18.0,89,0.00,,,0.10,,2013-01-26 02:32:00,
2013-01-25 18:42:00,55.0,52.0,30.04,NE,43,14.0,18.0,89,0.00,,,0.10,,2013-01-26 02:42:00,
2013-01-25 18:52:00,54.0,51.0,30.04,NE,35,13.0,17.0,89,0.01,,,0.11,,2013-01-26 02:52:00,
2013-01-25 19:01:00,54.0,51.0,30.03,ENE,61,15.0,18.0,90,0.01,,,0.11,,2013-01-26 03:01:00,
2013-01-25 19:11:00,54.0,51.0,30.03,ENE,61,15.0,18.0,90,0.01,,,0.11,,2013-01-26 03:11:00,
2013-01-25 19:21:00,54.0,51.0,30.04,ENE,68,11.0,15.0,90,0.01,,,0.11,,2013-01-26 03:21:00,
2013-01-25 19:31:00,54.0,51.0,30.04,ENE,67,19.0,22.0,88,0.01,,,0.11,,2013-01-26 03:31:00,
2013-01-25 19:42:00,54.0,51.0,30.04,ENE,67,19.0,22.0,88,0.01,,,0.11,,2013-01-26 03:42:00,
2013-01-25 19:51:00,55.0,52.0,30.03,ENE,61,14.0,22.0,88,0.00,,,0.11,,2013-01-26 03:51:00,
2013-01-25 20:01:00,54.0,51.0,30.03,East,83,8.0,17.0,89,0.00,,,0.11,,2013-01-26 04:01:00,
2013-01-25 20:12:00,54.0,51.0,30.03,East,83,8.0,17.0,89,0.00,,,0.11,,2013-01-26 04:12:00,
2013-01-25 20:21:00,55.0,51.0,30.03,NE,39,10.0,16.0,85,0.00,,,0.11,,2013-01-26 04:21:00,
2013-01-25 20:32:00,56.0,51.0,30.02,ENE,69,11.0,17.0,84,0.00,,,0.11,,2013-01-26 04:32:00,
2013-01-25 20:42:00,56.0,51.0,30.02,ENE,69,11.0,17.0,84,0.00,,,0.11,,2013-01-26 04:42:00,
2013-01-25 20:52:00,56.0,51.0,30.02,NNE,32,13.0,20.0,83,0.00,,,0.11,,2013-01-26 04:52:00,
2013-01-25 21:02:00,55.0,50.0,30.02,ENE,60,11.0,16.0,84,0.00,,,0.11,,2013-01-26 05:02:00,
2013-01-25 21:12:00,55.0,50.0,30.02,ENE,60,11.0,16.0,84,0.00,,,0.11,,2013-01-26 05:12:00,
2013-01-25 21:22:00,54.0,50.0,30.02,ENE,57,11.0,17.0,86,0.00,,,0.11,,2013-01-26 05:22:00,
2013-01-25 21:33:00,54.0,50.0,30.03,NE,49,12.0,19.0,86,0.00,,,0.11,,2013-01-26 05:33:00,
2013-01-25 21:41:00,54.0,50.0,30.03,NE,49,12.0,19.0,86,0.00,,,0.11,,2013-01-26 05:41:00,
2013-01-25 21:52:00,54.0,50.0,30.03,NE,51,16.0,21.0,87,0.01,,,0.09,,2013-01-26 05:52:00,
2013-01-25 22:02:00,54.0,51.0,30.02,NE,39,14.0,22.0,89,0.02,,,0.10,,2013-01-26 06:02:00,
2013-01-25 22:12:00,54.0,51.0,30.02,NE,39,14.0,22.0,89,0.02,,,0.10,,2013-01-26 06:12:00,
2013-01-25 22:21:00,53.0,50.0,30.02,ENE,59,12.0,20.0,91,0.02,,,0.10,,2013-01-26 06:21:00,
2013-01-25 22:31:00,53.0,51.0,30.02,ENE,57,20.0,26.0,92,0.02,,,0.10,,2013-01-26 06:31:00,
2013-01-25 22:41:00,53.0,51.0,30.02,ENE,57,20.0,26.0,92,0.02,,,0.10,,2013-01-26 06:41:00,
2013-01-25 22:51:00,53.0,51.0,30.02,NE,55,22.0,27.0,92,0.01,,,0.10,,2013-01-26 06:51:00,
2013-01-25 23:01:00,52.0,50.0,30.03,ENE,58,20.0,28.0,92,0.00,,,0.10,,2013-01-26 07:01:00,
2013-01-25 23:11:00,52.0,50.0,30.03,ENE,58,20.0,28.0,92,0.00,,,0.10,,2013-01-26 07:11:00,
2013-01-25 23:21:00,52.0,50.0,30.03,ENE,58,20.0,28.0,92,0.00,,,0.10,,2013-01-26 07:21:00,
2013-01-25 23:33:00,52.0,50.0,30.01,ENE,69,23.0,27.0,93,0.00,,,0.10,,2013-01-26 07:33:00,
2013-01-25 23:42:00,52.0,50.0,30.01,ENE,69,23.0,27.0,93,0.00,,,0.10,,2013-01-26 07:42:00,
2013-01-25 23:51:00,53.0,51.0,30.01,NE,34,19.0,26.0,93,0.00,,,0.10,,2013-01-26 07:51:00,